sensor_id;sensor_type;location;lat;lon;timestamp;P1;durP1;ratioP1;P2;durP2;ratioP2
55172;SDS011;41061;52.822;6.860;2024-02-26T00:01:31;22.83;;;15.35;;
55172;SDS011;41061;52.822;6.860;2024-02-26T00:03:58;29.38;;;17.45;;
55172;SDS011;41061;52.822;6.860;2024-02-26T00:06:24;22.60;;;15.75;;
55172;SDS011;41061;52.822;6.860;2024-02-26T00:08:51;24.52;;;16.42;;
55172;SDS011;41061;52.822;6.860;2024-02-26T00:11:17;28.33;;;17.80;;
55172;SDS011;41061;52.822;6.860;2024-02-26T00:13:43;33.92;;;17.40;;
55172;SDS011;41061;52.822;6.860;2024-02-26T00:16:09;30.80;;;17.52;;
55172;SDS011;41061;52.822;6.860;2024-02-26T00:18:35;25.50;;;17.38;;
55172;SDS011;41061;52.822;6.860;2024-02-26T00:21:01;28.20;;;19.25;;
55172;SDS011;41061;52.822;6.860;2024-02-26T00:23:28;29.92;;;19.55;;
55172;SDS011;41061;52.822;6.860;2024-02-26T00:25:54;32.97;;;19.80;;
55172;SDS011;41061;52.822;6.860;2024-02-26T00:28:20;30.23;;;19.40;;
55172;SDS011;41061;52.822;6.860;2024-02-26T00:30:47;31.73;;;19.65;;
55172;SDS011;41061;52.822;6.860;2024-02-26T00:33:16;29.67;;;18.60;;
55172;SDS011;41061;52.822;6.860;2024-02-26T00:35:42;26.23;;;17.52;;
55172;SDS011;41061;52.822;6.860;2024-02-26T00:38:09;29.88;;;18.05;;
55172;SDS011;41061;52.822;6.860;2024-02-26T00:40:35;28.73;;;17.25;;
55172;SDS011;41061;52.822;6.860;2024-02-26T00:43:01;26.20;;;17.25;;
55172;SDS011;41061;52.822;6.860;2024-02-26T00:45:27;27.08;;;17.30;;
55172;SDS011;41061;52.822;6.860;2024-02-26T00:47:53;30.70;;;17.75;;
55172;SDS011;41061;52.822;6.860;2024-02-26T00:50:19;29.83;;;18.83;;
55172;SDS011;41061;52.822;6.860;2024-02-26T00:52:45;28.30;;;19.00;;
55172;SDS011;41061;52.822;6.860;2024-02-26T00:55:11;32.28;;;19.70;;
55172;SDS011;41061;52.822;6.860;2024-02-26T00:57:37;29.33;;;20.50;;
55172;SDS011;41061;52.822;6.860;2024-02-26T01:00:06;33.00;;;21.60;;
55172;SDS011;41061;52.822;6.860;2024-02-26T01:02:34;33.47;;;20.42;;
55172;SDS011;41061;52.822;6.860;2024-02-26T01:05:00;32.30;;;20.17;;
55172;SDS011;41061;52.822;6.860;2024-02-26T01:07:26;29.27;;;19.98;;
55172;SDS011;41061;52.822;6.860;2024-02-26T01:09:52;31.00;;;19.42;;
55172;SDS011;41061;52.822;6.860;2024-02-26T01:12:18;28.40;;;19.15;;
55172;SDS011;41061;52.822;6.860;2024-02-26T01:14:44;27.77;;;18.45;;
55172;SDS011;41061;52.822;6.860;2024-02-26T01:17:10;30.60;;;19.40;;
55172;SDS011;41061;52.822;6.860;2024-02-26T01:19:36;29.13;;;18.92;;
55172;SDS011;41061;52.822;6.860;2024-02-26T01:22:02;30.10;;;17.58;;
55172;SDS011;41061;52.822;6.860;2024-02-26T01:24:29;28.27;;;18.10;;
55172;SDS011;41061;52.822;6.860;2024-02-26T01:26:55;23.50;;;15.68;;
55172;SDS011;41061;52.822;6.860;2024-02-26T01:29:21;24.27;;;15.63;;
55172;SDS011;41061;52.822;6.860;2024-02-26T01:31:47;27.17;;;16.05;;
55172;SDS011;41061;52.822;6.860;2024-02-26T01:34:13;26.27;;;16.33;;
55172;SDS011;41061;52.822;6.860;2024-02-26T01:36:39;21.17;;;14.07;;
55172;SDS011;41061;52.822;6.860;2024-02-26T01:39:06;26.27;;;15.98;;
55172;SDS011;41061;52.822;6.860;2024-02-26T01:41:32;27.23;;;17.45;;
55172;SDS011;41061;52.822;6.860;2024-02-26T01:43:58;31.55;;;19.77;;
55172;SDS011;41061;52.822;6.860;2024-02-26T01:46:24;27.60;;;16.33;;
55172;SDS011;41061;52.822;6.860;2024-02-26T01:48:51;30.67;;;18.15;;
55172;SDS011;41061;52.822;6.860;2024-02-26T01:51:17;28.60;;;16.30;;
55172;SDS011;41061;52.822;6.860;2024-02-26T01:53:43;29.35;;;17.58;;
55172;SDS011;41061;52.822;6.860;2024-02-26T01:56:10;30.60;;;17.02;;
55172;SDS011;41061;52.822;6.860;2024-02-26T01:58:36;24.67;;;15.38;;
55172;SDS011;41061;52.822;6.860;2024-02-26T02:01:02;26.23;;;15.75;;
55172;SDS011;41061;52.822;6.860;2024-02-26T02:03:28;29.85;;;17.42;;
55172;SDS011;41061;52.822;6.860;2024-02-26T02:05:55;21.70;;;13.82;;
55172;SDS011;41061;52.822;6.860;2024-02-26T02:08:22;29.85;;;18.20;;
55172;SDS011;41061;52.822;6.860;2024-02-26T02:10:49;32.45;;;18.58;;
55172;SDS011;41061;52.822;6.860;2024-02-26T02:13:15;32.13;;;18.90;;
55172;SDS011;41061;52.822;6.860;2024-02-26T02:15:41;27.80;;;16.88;;
55172;SDS011;41061;52.822;6.860;2024-02-26T02:18:07;31.42;;;17.55;;
55172;SDS011;41061;52.822;6.860;2024-02-26T02:20:34;30.92;;;16.25;;
55172;SDS011;41061;52.822;6.860;2024-02-26T02:23:00;29.85;;;16.05;;
55172;SDS011;41061;52.822;6.860;2024-02-26T02:25:26;33.97;;;17.60;;
55172;SDS011;41061;52.822;6.860;2024-02-26T02:27:53;27.92;;;15.52;;
55172;SDS011;41061;52.822;6.860;2024-02-26T02:30:20;35.05;;;18.80;;
55172;SDS011;41061;52.822;6.860;2024-02-26T02:32:47;38.80;;;18.60;;
55172;SDS011;41061;52.822;6.860;2024-02-26T02:35:13;34.45;;;19.02;;
55172;SDS011;41061;52.822;6.860;2024-02-26T02:37:39;34.70;;;16.83;;
55172;SDS011;41061;52.822;6.860;2024-02-26T02:40:05;34.67;;;18.42;;
55172;SDS011;41061;52.822;6.860;2024-02-26T02:42:31;42.25;;;20.52;;
55172;SDS011;41061;52.822;6.860;2024-02-26T02:44:58;34.83;;;18.60;;
55172;SDS011;41061;52.822;6.860;2024-02-26T02:47:24;39.88;;;19.90;;
55172;SDS011;41061;52.822;6.860;2024-02-26T02:49:50;43.70;;;20.85;;
55172;SDS011;41061;52.822;6.860;2024-02-26T02:52:16;50.35;;;22.00;;
55172;SDS011;41061;52.822;6.860;2024-02-26T02:54:42;42.78;;;19.05;;
55172;SDS011;41061;52.822;6.860;2024-02-26T02:57:08;48.17;;;22.45;;
55172;SDS011;41061;52.822;6.860;2024-02-26T02:59:35;47.13;;;21.60;;
55172;SDS011;41061;52.822;6.860;2024-02-26T03:02:01;47.28;;;20.98;;
55172;SDS011;41061;52.822;6.860;2024-02-26T03:04:27;49.33;;;21.83;;
55172;SDS011;41061;52.822;6.860;2024-02-26T03:06:54;46.33;;;21.85;;
55172;SDS011;41061;52.822;6.860;2024-02-26T03:09:20;45.50;;;21.23;;
55172;SDS011;41061;52.822;6.860;2024-02-26T03:11:46;49.83;;;22.75;;
55172;SDS011;41061;52.822;6.860;2024-02-26T03:14:12;47.50;;;21.25;;
55172;SDS011;41061;52.822;6.860;2024-02-26T03:16:38;43.88;;;18.33;;
55172;SDS011;41061;52.822;6.860;2024-02-26T03:19:04;48.00;;;23.58;;
55172;SDS011;41061;52.822;6.860;2024-02-26T03:21:31;62.08;;;27.33;;
55172;SDS011;41061;52.822;6.860;2024-02-26T03:23:57;55.17;;;23.60;;
55172;SDS011;41061;52.822;6.860;2024-02-26T03:26:23;67.57;;;28.15;;
55172;SDS011;41061;52.822;6.860;2024-02-26T03:28:49;69.65;;;24.05;;
55172;SDS011;41061;52.822;6.860;2024-02-26T03:31:15;85.93;;;31.85;;
55172;SDS011;41061;52.822;6.860;2024-02-26T03:33:41;88.18;;;28.17;;
55172;SDS011;41061;52.822;6.860;2024-02-26T03:36:07;89.50;;;29.52;;
55172;SDS011;41061;52.822;6.860;2024-02-26T03:38:33;89.10;;;32.17;;
55172;SDS011;41061;52.822;6.860;2024-02-26T03:40:59;96.15;;;32.40;;
55172;SDS011;41061;52.822;6.860;2024-02-26T03:43:26;83.55;;;31.40;;
55172;SDS011;41061;52.822;6.860;2024-02-26T03:45:52;98.50;;;35.03;;
55172;SDS011;41061;52.822;6.860;2024-02-26T03:48:18;90.85;;;31.42;;
55172;SDS011;41061;52.822;6.860;2024-02-26T03:50:44;87.78;;;30.17;;
55172;SDS011;41061;52.822;6.860;2024-02-26T03:53:10;96.40;;;33.17;;
55172;SDS011;41061;52.822;6.860;2024-02-26T03:55:37;86.22;;;31.23;;
55172;SDS011;41061;52.822;6.860;2024-02-26T03:58:03;90.82;;;31.88;;
55172;SDS011;41061;52.822;6.860;2024-02-26T04:00:29;78.35;;;28.48;;
55172;SDS011;41061;52.822;6.860;2024-02-26T04:02:56;74.15;;;28.35;;
55172;SDS011;41061;52.822;6.860;2024-02-26T04:05:22;73.55;;;27.83;;
55172;SDS011;41061;52.822;6.860;2024-02-26T04:07:48;78.57;;;28.92;;
55172;SDS011;41061;52.822;6.860;2024-02-26T04:10:14;91.15;;;34.22;;
55172;SDS011;41061;52.822;6.860;2024-02-26T04:12:40;84.72;;;31.00;;
55172;SDS011;41061;52.822;6.860;2024-02-26T04:15:07;77.50;;;29.17;;
55172;SDS011;41061;52.822;6.860;2024-02-26T04:17:33;85.70;;;30.60;;
55172;SDS011;41061;52.822;6.860;2024-02-26T04:19:59;91.50;;;30.95;;
55172;SDS011;41061;52.822;6.860;2024-02-26T04:22:25;85.43;;;32.63;;
55172;SDS011;41061;52.822;6.860;2024-02-26T04:24:52;84.32;;;29.67;;
55172;SDS011;41061;52.822;6.860;2024-02-26T04:27:18;80.00;;;31.55;;
55172;SDS011;41061;52.822;6.860;2024-02-26T04:29:44;80.03;;;28.45;;
55172;SDS011;41061;52.822;6.860;2024-02-26T04:32:10;71.03;;;28.60;;
55172;SDS011;41061;52.822;6.860;2024-02-26T04:34:36;76.95;;;30.38;;
55172;SDS011;41061;52.822;6.860;2024-02-26T04:37:02;73.97;;;29.77;;
55172;SDS011;41061;52.822;6.860;2024-02-26T04:39:28;80.47;;;29.90;;
55172;SDS011;41061;52.822;6.860;2024-02-26T04:41:54;69.80;;;25.77;;
55172;SDS011;41061;52.822;6.860;2024-02-26T04:44:20;78.47;;;30.77;;
55172;SDS011;41061;52.822;6.860;2024-02-26T04:46:46;65.00;;;27.42;;
55172;SDS011;41061;52.822;6.860;2024-02-26T04:49:12;60.20;;;26.52;;
55172;SDS011;41061;52.822;6.860;2024-02-26T04:51:38;61.10;;;24.80;;
55172;SDS011;41061;52.822;6.860;2024-02-26T04:54:05;56.70;;;23.42;;
55172;SDS011;41061;52.822;6.860;2024-02-26T04:56:31;55.97;;;25.50;;
55172;SDS011;41061;52.822;6.860;2024-02-26T04:58:57;55.17;;;23.65;;
55172;SDS011;41061;52.822;6.860;2024-02-26T05:01:23;49.15;;;21.48;;
55172;SDS011;41061;52.822;6.860;2024-02-26T05:03:49;48.78;;;22.25;;
55172;SDS011;41061;52.822;6.860;2024-02-26T05:06:15;41.28;;;18.67;;
55172;SDS011;41061;52.822;6.860;2024-02-26T05:08:41;49.15;;;22.65;;
55172;SDS011;41061;52.822;6.860;2024-02-26T05:11:09;46.35;;;20.73;;
55172;SDS011;41061;52.822;6.860;2024-02-26T05:13:35;47.22;;;23.20;;
55172;SDS011;41061;52.822;6.860;2024-02-26T05:16:01;45.03;;;22.38;;
55172;SDS011;41061;52.822;6.860;2024-02-26T05:18:27;45.03;;;22.33;;
55172;SDS011;41061;52.822;6.860;2024-02-26T05:20:53;29.38;;;14.05;;
55172;SDS011;41061;52.822;6.860;2024-02-26T05:23:20;33.05;;;17.02;;
55172;SDS011;41061;52.822;6.860;2024-02-26T05:25:46;25.67;;;13.82;;
55172;SDS011;41061;52.822;6.860;2024-02-26T05:28:13;32.15;;;18.23;;
55172;SDS011;41061;52.822;6.860;2024-02-26T05:30:40;28.17;;;15.10;;
55172;SDS011;41061;52.822;6.860;2024-02-26T05:33:07;29.92;;;15.77;;
55172;SDS011;41061;52.822;6.860;2024-02-26T05:35:33;33.17;;;17.67;;
55172;SDS011;41061;52.822;6.860;2024-02-26T05:37:59;24.13;;;14.57;;
55172;SDS011;41061;52.822;6.860;2024-02-26T05:40:25;20.70;;;12.45;;
55172;SDS011;41061;52.822;6.860;2024-02-26T05:42:51;21.88;;;11.95;;
55172;SDS011;41061;52.822;6.860;2024-02-26T05:45:17;24.00;;;13.40;;
55172;SDS011;41061;52.822;6.860;2024-02-26T05:47:43;24.58;;;14.82;;
55172;SDS011;41061;52.822;6.860;2024-02-26T05:50:09;22.80;;;12.82;;
55172;SDS011;41061;52.822;6.860;2024-02-26T05:52:39;21.63;;;13.95;;
55172;SDS011;41061;52.822;6.860;2024-02-26T05:55:06;23.80;;;13.95;;
55172;SDS011;41061;52.822;6.860;2024-02-26T05:57:35;18.00;;;10.23;;
55172;SDS011;41061;52.822;6.860;2024-02-26T06:00:02;20.58;;;12.98;;
55172;SDS011;41061;52.822;6.860;2024-02-26T06:02:31;22.15;;;12.32;;
55172;SDS011;41061;52.822;6.860;2024-02-26T06:04:57;21.85;;;13.20;;
55172;SDS011;41061;52.822;6.860;2024-02-26T06:07:23;21.92;;;13.02;;
55172;SDS011;41061;52.822;6.860;2024-02-26T06:09:49;20.75;;;13.00;;
55172;SDS011;41061;52.822;6.860;2024-02-26T06:12:15;18.95;;;13.05;;
55172;SDS011;41061;52.822;6.860;2024-02-26T06:14:42;15.35;;;10.05;;
55172;SDS011;41061;52.822;6.860;2024-02-26T06:17:08;22.13;;;11.90;;
55172;SDS011;41061;52.822;6.860;2024-02-26T06:19:34;18.73;;;10.52;;
55172;SDS011;41061;52.822;6.860;2024-02-26T06:22:00;15.05;;;8.60;;
55172;SDS011;41061;52.822;6.860;2024-02-26T06:24:26;20.77;;;11.55;;
55172;SDS011;41061;52.822;6.860;2024-02-26T06:26:52;18.55;;;11.20;;
55172;SDS011;41061;52.822;6.860;2024-02-26T06:29:18;15.77;;;10.57;;
55172;SDS011;41061;52.822;6.860;2024-02-26T06:31:44;18.05;;;11.00;;
55172;SDS011;41061;52.822;6.860;2024-02-26T06:34:10;18.45;;;10.93;;
55172;SDS011;41061;52.822;6.860;2024-02-26T06:36:36;16.90;;;11.15;;
55172;SDS011;41061;52.822;6.860;2024-02-26T06:39:02;18.27;;;11.40;;
55172;SDS011;41061;52.822;6.860;2024-02-26T06:41:30;19.88;;;10.73;;
55172;SDS011;41061;52.822;6.860;2024-02-26T06:43:56;17.42;;;10.07;;
55172;SDS011;41061;52.822;6.860;2024-02-26T06:46:22;15.63;;;10.50;;
55172;SDS011;41061;52.822;6.860;2024-02-26T06:48:49;19.20;;;10.00;;
55172;SDS011;41061;52.822;6.860;2024-02-26T06:51:15;15.63;;;9.63;;
55172;SDS011;41061;52.822;6.860;2024-02-26T06:53:41;11.80;;;7.75;;
55172;SDS011;41061;52.822;6.860;2024-02-26T06:56:07;9.20;;;6.72;;
55172;SDS011;41061;52.822;6.860;2024-02-26T06:58:33;14.40;;;8.35;;
55172;SDS011;41061;52.822;6.860;2024-02-26T07:00:59;13.80;;;8.88;;
55172;SDS011;41061;52.822;6.860;2024-02-26T07:03:25;14.52;;;8.32;;
55172;SDS011;41061;52.822;6.860;2024-02-26T07:05:51;12.55;;;6.47;;
55172;SDS011;41061;52.822;6.860;2024-02-26T07:08:18;12.02;;;7.65;;
55172;SDS011;41061;52.822;6.860;2024-02-26T07:10:44;11.88;;;7.60;;
55172;SDS011;41061;52.822;6.860;2024-02-26T07:13:10;11.90;;;7.80;;
55172;SDS011;41061;52.822;6.860;2024-02-26T07:15:36;11.55;;;7.93;;
55172;SDS011;41061;52.822;6.860;2024-02-26T07:18:02;10.20;;;5.97;;
55172;SDS011;41061;52.822;6.860;2024-02-26T07:20:29;9.43;;;6.68;;
55172;SDS011;41061;52.822;6.860;2024-02-26T07:22:55;10.52;;;6.63;;
55172;SDS011;41061;52.822;6.860;2024-02-26T07:25:21;10.23;;;6.53;;
55172;SDS011;41061;52.822;6.860;2024-02-26T07:27:49;9.30;;;6.40;;
55172;SDS011;41061;52.822;6.860;2024-02-26T07:30:15;7.68;;;5.68;;
55172;SDS011;41061;52.822;6.860;2024-02-26T07:32:42;10.65;;;6.05;;
55172;SDS011;41061;52.822;6.860;2024-02-26T07:35:08;10.70;;;6.82;;
55172;SDS011;41061;52.822;6.860;2024-02-26T07:37:35;12.40;;;8.23;;
55172;SDS011;41061;52.822;6.860;2024-02-26T07:40:01;9.40;;;6.00;;
55172;SDS011;41061;52.822;6.860;2024-02-26T07:42:28;11.32;;;6.97;;
55172;SDS011;41061;52.822;6.860;2024-02-26T07:44:54;8.07;;;5.90;;
55172;SDS011;41061;52.822;6.860;2024-02-26T07:47:20;8.95;;;6.75;;
55172;SDS011;41061;52.822;6.860;2024-02-26T07:49:46;7.43;;;5.28;;
55172;SDS011;41061;52.822;6.860;2024-02-26T07:52:13;10.75;;;7.10;;
55172;SDS011;41061;52.822;6.860;2024-02-26T07:54:39;8.88;;;5.75;;
55172;SDS011;41061;52.822;6.860;2024-02-26T07:57:05;8.93;;;6.32;;
55172;SDS011;41061;52.822;6.860;2024-02-26T07:59:32;10.65;;;6.53;;
55172;SDS011;41061;52.822;6.860;2024-02-26T08:01:58;9.45;;;6.20;;
55172;SDS011;41061;52.822;6.860;2024-02-26T08:04:25;9.23;;;6.07;;
55172;SDS011;41061;52.822;6.860;2024-02-26T08:06:51;7.22;;;3.97;;
55172;SDS011;41061;52.822;6.860;2024-02-26T08:09:18;10.00;;;6.45;;
55172;SDS011;41061;52.822;6.860;2024-02-26T08:11:44;8.07;;;6.05;;
55172;SDS011;41061;52.822;6.860;2024-02-26T08:14:10;11.18;;;6.03;;
55172;SDS011;41061;52.822;6.860;2024-02-26T08:16:36;7.65;;;5.55;;
55172;SDS011;41061;52.822;6.860;2024-02-26T08:19:02;7.68;;;5.90;;
55172;SDS011;41061;52.822;6.860;2024-02-26T08:21:28;6.95;;;5.03;;
55172;SDS011;41061;52.822;6.860;2024-02-26T08:23:54;6.70;;;4.63;;
55172;SDS011;41061;52.822;6.860;2024-02-26T08:26:20;5.35;;;3.83;;
55172;SDS011;41061;52.822;6.860;2024-02-26T08:28:47;8.82;;;6.25;;
55172;SDS011;41061;52.822;6.860;2024-02-26T08:31:16;6.93;;;4.85;;
55172;SDS011;41061;52.822;6.860;2024-02-26T08:33:42;7.75;;;5.20;;
55172;SDS011;41061;52.822;6.860;2024-02-26T08:36:08;10.40;;;6.43;;
55172;SDS011;41061;52.822;6.860;2024-02-26T08:38:34;9.32;;;5.43;;
55172;SDS011;41061;52.822;6.860;2024-02-26T08:41:01;8.45;;;5.20;;
55172;SDS011;41061;52.822;6.860;2024-02-26T08:43:30;5.25;;;3.53;;
55172;SDS011;41061;52.822;6.860;2024-02-26T08:45:56;6.75;;;5.32;;
55172;SDS011;41061;52.822;6.860;2024-02-26T08:48:23;8.35;;;4.78;;
55172;SDS011;41061;52.822;6.860;2024-02-26T08:50:49;6.63;;;4.75;;
55172;SDS011;41061;52.822;6.860;2024-02-26T08:53:16;8.15;;;5.35;;
55172;SDS011;41061;52.822;6.860;2024-02-26T08:55:42;6.32;;;4.72;;
55172;SDS011;41061;52.822;6.860;2024-02-26T08:58:08;7.60;;;4.80;;
55172;SDS011;41061;52.822;6.860;2024-02-26T09:00:34;9.73;;;5.85;;
55172;SDS011;41061;52.822;6.860;2024-02-26T09:03:00;8.55;;;6.05;;
55172;SDS011;41061;52.822;6.860;2024-02-26T09:05:26;7.63;;;5.72;;
55172;SDS011;41061;52.822;6.860;2024-02-26T09:07:52;7.15;;;5.55;;
55172;SDS011;41061;52.822;6.860;2024-02-26T09:10:19;5.88;;;4.45;;
55172;SDS011;41061;52.822;6.860;2024-02-26T09:12:45;8.88;;;6.28;;
55172;SDS011;41061;52.822;6.860;2024-02-26T09:15:11;8.90;;;4.63;;
55172;SDS011;41061;52.822;6.860;2024-02-26T09:17:37;6.82;;;4.97;;
55172;SDS011;41061;52.822;6.860;2024-02-26T09:20:04;7.72;;;5.90;;
55172;SDS011;41061;52.822;6.860;2024-02-26T09:22:31;6.90;;;5.47;;
55172;SDS011;41061;52.822;6.860;2024-02-26T09:24:57;7.47;;;4.50;;
55172;SDS011;41061;52.822;6.860;2024-02-26T09:27:23;6.25;;;4.82;;
55172;SDS011;41061;52.822;6.860;2024-02-26T09:29:49;7.63;;;5.25;;
55172;SDS011;41061;52.822;6.860;2024-02-26T09:32:15;10.65;;;6.30;;
55172;SDS011;41061;52.822;6.860;2024-02-26T09:34:41;8.25;;;5.30;;
55172;SDS011;41061;52.822;6.860;2024-02-26T09:37:07;6.88;;;5.68;;
55172;SDS011;41061;52.822;6.860;2024-02-26T09:39:33;8.70;;;4.50;;
55172;SDS011;41061;52.822;6.860;2024-02-26T09:42:00;5.70;;;4.25;;
55172;SDS011;41061;52.822;6.860;2024-02-26T09:44:30;8.05;;;6.25;;
55172;SDS011;41061;52.822;6.860;2024-02-26T09:46:58;7.55;;;5.53;;
55172;SDS011;41061;52.822;6.860;2024-02-26T09:49:24;7.55;;;5.63;;
55172;SDS011;41061;52.822;6.860;2024-02-26T09:51:51;9.13;;;6.00;;
55172;SDS011;41061;52.822;6.860;2024-02-26T09:54:17;8.38;;;6.60;;
55172;SDS011;41061;52.822;6.860;2024-02-26T09:56:43;9.32;;;5.35;;
55172;SDS011;41061;52.822;6.860;2024-02-26T09:59:13;7.35;;;5.68;;
55172;SDS011;41061;52.822;6.860;2024-02-26T10:01:41;9.45;;;5.63;;
55172;SDS011;41061;52.822;6.860;2024-02-26T10:04:08;10.73;;;6.13;;
55172;SDS011;41061;52.822;6.860;2024-02-26T10:06:34;6.82;;;5.43;;
55172;SDS011;41061;52.822;6.860;2024-02-26T10:09:02;8.05;;;6.07;;
55172;SDS011;41061;52.822;6.860;2024-02-26T10:11:32;7.80;;;4.72;;
55172;SDS011;41061;52.822;6.860;2024-02-26T10:13:58;7.45;;;5.50;;
55172;SDS011;41061;52.822;6.860;2024-02-26T10:16:25;11.52;;;6.35;;
55172;SDS011;41061;52.822;6.860;2024-02-26T10:18:52;8.35;;;6.15;;
55172;SDS011;41061;52.822;6.860;2024-02-26T10:21:21;6.20;;;4.95;;
55172;SDS011;41061;52.822;6.860;2024-02-26T10:23:48;8.73;;;6.07;;
55172;SDS011;41061;52.822;6.860;2024-02-26T10:26:15;6.30;;;4.60;;
55172;SDS011;41061;52.822;6.860;2024-02-26T10:28:42;6.88;;;4.93;;
55172;SDS011;41061;52.822;6.860;2024-02-26T10:31:08;7.70;;;5.45;;
55172;SDS011;41061;52.822;6.860;2024-02-26T10:33:35;6.82;;;4.93;;
55172;SDS011;41061;52.822;6.860;2024-02-26T10:36:04;6.50;;;4.75;;
55172;SDS011;41061;52.822;6.860;2024-02-26T10:38:32;6.95;;;5.07;;
55172;SDS011;41061;52.822;6.860;2024-02-26T10:40:58;6.20;;;4.03;;
55172;SDS011;41061;52.822;6.860;2024-02-26T10:43:27;7.43;;;5.60;;
55172;SDS011;41061;52.822;6.860;2024-02-26T10:45:56;8.55;;;6.50;;
55172;SDS011;41061;52.822;6.860;2024-02-26T10:48:22;8.52;;;6.43;;
55172;SDS011;41061;52.822;6.860;2024-02-26T10:50:48;8.38;;;6.30;;
55172;SDS011;41061;52.822;6.860;2024-02-26T10:53:21;6.78;;;5.13;;
55172;SDS011;41061;52.822;6.860;2024-02-26T10:55:49;7.95;;;5.88;;
55172;SDS011;41061;52.822;6.860;2024-02-26T10:58:17;12.02;;;7.20;;
55172;SDS011;41061;52.822;6.860;2024-02-26T11:00:44;8.88;;;6.75;;
55172;SDS011;41061;52.822;6.860;2024-02-26T11:03:12;9.93;;;7.38;;
55172;SDS011;41061;52.822;6.860;2024-02-26T11:05:41;8.90;;;5.95;;
55172;SDS011;41061;52.822;6.860;2024-02-26T11:08:09;8.30;;;6.25;;
55172;SDS011;41061;52.822;6.860;2024-02-26T11:10:35;11.23;;;6.65;;
55172;SDS011;41061;52.822;6.860;2024-02-26T11:13:03;10.13;;;6.78;;
55172;SDS011;41061;52.822;6.860;2024-02-26T11:15:31;11.35;;;8.15;;
55172;SDS011;41061;52.822;6.860;2024-02-26T11:17:59;8.85;;;6.82;;
55172;SDS011;41061;52.822;6.860;2024-02-26T11:20:25;9.23;;;7.50;;
55172;SDS011;41061;52.822;6.860;2024-02-26T11:22:55;9.77;;;7.60;;
55172;SDS011;41061;52.822;6.860;2024-02-26T11:25:21;9.05;;;6.75;;
55172;SDS011;41061;52.822;6.860;2024-02-26T11:27:50;9.23;;;7.03;;
55172;SDS011;41061;52.822;6.860;2024-02-26T11:30:17;12.82;;;7.55;;
55172;SDS011;41061;52.822;6.860;2024-02-26T11:32:44;10.73;;;8.02;;
55172;SDS011;41061;52.822;6.860;2024-02-26T11:35:11;8.30;;;6.47;;
55172;SDS011;41061;52.822;6.860;2024-02-26T11:37:40;9.10;;;7.07;;
55172;SDS011;41061;52.822;6.860;2024-02-26T11:40:11;9.93;;;7.57;;
55172;SDS011;41061;52.822;6.860;2024-02-26T11:42:43;10.25;;;7.65;;
55172;SDS011;41061;52.822;6.860;2024-02-26T11:47:57;11.05;;;7.93;;
55172;SDS011;41061;52.822;6.860;2024-02-26T11:50:36;10.48;;;7.38;;
55172;SDS011;41061;52.822;6.860;2024-02-26T11:55:47;11.40;;;7.70;;
55172;SDS011;41061;52.822;6.860;2024-02-26T11:58:14;10.13;;;6.95;;
55172;SDS011;41061;52.822;6.860;2024-02-26T12:00:40;10.13;;;7.47;;
55172;SDS011;41061;52.822;6.860;2024-02-26T12:03:06;11.30;;;6.60;;
55172;SDS011;41061;52.822;6.860;2024-02-26T12:05:33;10.60;;;7.97;;
55172;SDS011;41061;52.822;6.860;2024-02-26T12:08:05;9.15;;;6.85;;
55172;SDS011;41061;52.822;6.860;2024-02-26T12:10:38;10.52;;;7.47;;
55172;SDS011;41061;52.822;6.860;2024-02-26T12:15:31;10.55;;;8.05;;
55172;SDS011;41061;52.822;6.860;2024-02-26T12:18:00;11.70;;;7.00;;
55172;SDS011;41061;52.822;6.860;2024-02-26T12:20:26;8.48;;;6.10;;
55172;SDS011;41061;52.822;6.860;2024-02-26T12:22:52;9.27;;;7.03;;
55172;SDS011;41061;52.822;6.860;2024-02-26T12:25:27;9.70;;;7.13;;
55172;SDS011;41061;52.822;6.860;2024-02-26T12:27:54;9.32;;;6.72;;
55172;SDS011;41061;52.822;6.860;2024-02-26T12:30:21;10.88;;;7.07;;
55172;SDS011;41061;52.822;6.860;2024-02-26T12:32:47;8.48;;;6.40;;
55172;SDS011;41061;52.822;6.860;2024-02-26T12:35:14;10.00;;;6.93;;
55172;SDS011;41061;52.822;6.860;2024-02-26T12:37:41;9.82;;;5.85;;
55172;SDS011;41061;52.822;6.860;2024-02-26T12:40:08;10.73;;;7.30;;
55172;SDS011;41061;52.822;6.860;2024-02-26T12:42:35;8.82;;;5.78;;
55172;SDS011;41061;52.822;6.860;2024-02-26T12:45:05;8.82;;;6.10;;
55172;SDS011;41061;52.822;6.860;2024-02-26T12:50:03;8.10;;;5.45;;
55172;SDS011;41061;52.822;6.860;2024-02-26T12:52:30;8.50;;;6.03;;
55172;SDS011;41061;52.822;6.860;2024-02-26T12:54:57;10.48;;;6.78;;
55172;SDS011;41061;52.822;6.860;2024-02-26T12:57:23;8.95;;;5.80;;
55172;SDS011;41061;52.822;6.860;2024-02-26T12:59:49;9.80;;;7.13;;
55172;SDS011;41061;52.822;6.860;2024-02-26T13:02:15;11.57;;;7.72;;
55172;SDS011;41061;52.822;6.860;2024-02-26T13:04:41;8.75;;;6.88;;
55172;SDS011;41061;52.822;6.860;2024-02-26T13:07:09;8.82;;;6.85;;
55172;SDS011;41061;52.822;6.860;2024-02-26T13:09:35;9.68;;;6.65;;
55172;SDS011;41061;52.822;6.860;2024-02-26T13:12:05;10.75;;;7.53;;
55172;SDS011;41061;52.822;6.860;2024-02-26T13:14:31;9.50;;;7.05;;
55172;SDS011;41061;52.822;6.860;2024-02-26T13:16:59;7.88;;;5.70;;
55172;SDS011;41061;52.822;6.860;2024-02-26T13:19:25;9.48;;;5.88;;
55172;SDS011;41061;52.822;6.860;2024-02-26T13:21:53;10.65;;;7.32;;
55172;SDS011;41061;52.822;6.860;2024-02-26T13:24:22;9.50;;;6.47;;
55172;SDS011;41061;52.822;6.860;2024-02-26T13:26:53;9.57;;;6.03;;
55172;SDS011;41061;52.822;6.860;2024-02-26T13:29:20;8.48;;;5.80;;
55172;SDS011;41061;52.822;6.860;2024-02-26T13:31:46;10.43;;;7.70;;
55172;SDS011;41061;52.822;6.860;2024-02-26T13:34:27;9.82;;;5.95;;
55172;SDS011;41061;52.822;6.860;2024-02-26T13:36:56;9.98;;;6.90;;
55172;SDS011;41061;52.822;6.860;2024-02-26T13:39:23;9.93;;;6.53;;
55172;SDS011;41061;52.822;6.860;2024-02-26T13:41:50;10.02;;;6.70;;
55172;SDS011;41061;52.822;6.860;2024-02-26T13:44:16;9.32;;;6.60;;
55172;SDS011;41061;52.822;6.860;2024-02-26T13:46:42;9.60;;;6.57;;
55172;SDS011;41061;52.822;6.860;2024-02-26T13:49:08;10.13;;;6.20;;
55172;SDS011;41061;52.822;6.860;2024-02-26T13:51:36;8.73;;;5.70;;
55172;SDS011;41061;52.822;6.860;2024-02-26T13:54:02;11.70;;;7.55;;
55172;SDS011;41061;52.822;6.860;2024-02-26T13:56:29;11.13;;;7.35;;
55172;SDS011;41061;52.822;6.860;2024-02-26T13:58:55;12.45;;;8.80;;
55172;SDS011;41061;52.822;6.860;2024-02-26T14:01:21;12.10;;;7.15;;
55172;SDS011;41061;52.822;6.860;2024-02-26T14:03:47;11.98;;;8.57;;
55172;SDS011;41061;52.822;6.860;2024-02-26T14:06:13;12.35;;;8.48;;
55172;SDS011;41061;52.822;6.860;2024-02-26T14:08:39;10.98;;;7.90;;
55172;SDS011;41061;52.822;6.860;2024-02-26T14:11:06;10.85;;;7.35;;
55172;SDS011;41061;52.822;6.860;2024-02-26T14:13:32;13.48;;;9.07;;
55172;SDS011;41061;52.822;6.860;2024-02-26T14:15:58;11.88;;;8.10;;
55172;SDS011;41061;52.822;6.860;2024-02-26T14:18:24;12.57;;;8.80;;
55172;SDS011;41061;52.822;6.860;2024-02-26T14:20:52;11.27;;;7.35;;
55172;SDS011;41061;52.822;6.860;2024-02-26T14:23:18;14.30;;;9.35;;
55172;SDS011;41061;52.822;6.860;2024-02-26T14:25:44;14.25;;;10.10;;
55172;SDS011;41061;52.822;6.860;2024-02-26T14:28:10;13.18;;;9.38;;
55172;SDS011;41061;52.822;6.860;2024-02-26T14:30:37;12.27;;;8.93;;
55172;SDS011;41061;52.822;6.860;2024-02-26T14:33:03;13.35;;;10.13;;
55172;SDS011;41061;52.822;6.860;2024-02-26T14:35:29;13.85;;;10.52;;
55172;SDS011;41061;52.822;6.860;2024-02-26T14:37:55;10.05;;;7.32;;
55172;SDS011;41061;52.822;6.860;2024-02-26T14:40:25;13.15;;;9.13;;